sensor_id;sensor_type;location;lat;lon;timestamp;pressure;altitude;pressure_sealevel;temperature;humidity
53262;BME280;39658;51.090;-1.786;2022-09-24T00:02:25;100952.38;;;10.60;85.21
53262;BME280;39658;51.090;-1.786;2022-09-24T00:04:53;100961.50;;;10.58;85.50
53262;BME280;39658;51.090;-1.786;2022-09-24T00:07:21;100960.94;;;10.54;85.26
53262;BME280;39658;51.090;-1.786;2022-09-24T00:09:47;100956.81;;;10.42;86.11
53262;BME280;39658;51.090;-1.786;2022-09-24T00:12:14;100950.97;;;10.29;86.29
53262;BME280;39658;51.090;-1.786;2022-09-24T00:14:43;100950.00;;;10.30;87.05
53262;BME280;39658;51.090;-1.786;2022-09-24T00:17:10;100955.41;;;10.38;86.77
53262;BME280;39658;51.090;-1.786;2022-09-24T00:19:36;100946.78;;;10.26;87.10
53262;BME280;39658;51.090;-1.786;2022-09-24T00:22:03;100956.47;;;10.18;88.13
53262;BME280;39658;51.090;-1.786;2022-09-24T00:24:31;100959.72;;;10.12;87.88
53262;BME280;39658;51.090;-1.786;2022-09-24T00:27:16;100955.69;;;9.98;88.08
53262;BME280;39658;51.090;-1.786;2022-09-24T00:29:43;100950.72;;;9.76;89.23
53262;BME280;39658;51.090;-1.786;2022-09-24T00:32:09;100950.03;;;9.73;90.30
53262;BME280;39658;51.090;-1.786;2022-09-24T00:34:37;100955.19;;;9.75;89.56
53262;BME280;39658;51.090;-1.786;2022-09-24T00:37:04;100957.44;;;9.70;89.67
53262;BME280;39658;51.090;-1.786;2022-09-24T00:39:32;100956.34;;;9.63;90.25
53262;BME280;39658;51.090;-1.786;2022-09-24T00:41:59;100961.09;;;9.50;90.84
53262;BME280;39658;51.090;-1.786;2022-09-24T00:44:52;100959.84;;;9.44;91.78
53262;BME280;39658;51.090;-1.786;2022-09-24T00:47:33;100954.41;;;9.36;91.72
53262;BME280;39658;51.090;-1.786;2022-09-24T00:50:14;100950.09;;;9.25;93.07
53262;BME280;39658;51.090;-1.786;2022-09-24T00:52:45;100953.16;;;9.40;92.58
53262;BME280;39658;51.090;-1.786;2022-09-24T00:55:16;100957.06;;;9.26;93.12
53262;BME280;39658;51.090;-1.786;2022-09-24T00:57:45;100952.31;;;9.39;93.42
53262;BME280;39658;51.090;-1.786;2022-09-24T01:00:14;100957.06;;;9.26;93.91
53262;BME280;39658;51.090;-1.786;2022-09-24T01:02:45;100961.13;;;9.21;94.14
53262;BME280;39658;51.090;-1.786;2022-09-24T01:05:12;100962.63;;;9.14;94.23
53262;BME280;39658;51.090;-1.786;2022-09-24T01:07:42;100966.13;;;9.04;95.28
53262;BME280;39658;51.090;-1.786;2022-09-24T01:10:12;100964.47;;;9.03;95.95
53262;BME280;39658;51.090;-1.786;2022-09-24T01:13:07;100960.41;;;8.99;95.45
53262;BME280;39658;51.090;-1.786;2022-09-24T01:15:42;100953.84;;;9.03;96.10
53262;BME280;39658;51.090;-1.786;2022-09-24T01:18:17;100953.13;;;9.11;96.06
53262;BME280;39658;51.090;-1.786;2022-09-24T01:21:00;100955.53;;;9.04;95.96
53262;BME280;39658;51.090;-1.786;2022-09-24T01:23:49;100959.00;;;9.05;96.20
53262;BME280;39658;51.090;-1.786;2022-09-24T01:26:42;100954.00;;;9.21;96.11
53262;BME280;39658;51.090;-1.786;2022-09-24T01:29:23;100961.13;;;9.21;95.63
53262;BME280;39658;51.090;-1.786;2022-09-24T01:31:58;100958.72;;;9.18;95.79
53262;BME280;39658;51.090;-1.786;2022-09-24T01:34:37;100954.41;;;8.97;96.65
53262;BME280;39658;51.090;-1.786;2022-09-24T01:37:05;100950.50;;;8.92;97.00
53262;BME280;39658;51.090;-1.786;2022-09-24T01:39:35;100953.28;;;8.90;97.01
53262;BME280;39658;51.090;-1.786;2022-09-24T01:42:03;100952.72;;;8.96;96.81
53262;BME280;39658;51.090;-1.786;2022-09-24T01:44:33;100948.41;;;8.95;97.42
53262;BME280;39658;51.090;-1.786;2022-09-24T01:47:03;100942.38;;;8.93;97.53
53262;BME280;39658;51.090;-1.786;2022-09-24T01:49:30;100936.53;;;8.90;97.25
53262;BME280;39658;51.090;-1.786;2022-09-24T01:52:00;100934.84;;;8.89;97.18
53262;BME280;39658;51.090;-1.786;2022-09-24T01:54:33;100931.78;;;8.84;97.03
53262;BME280;39658;51.090;-1.786;2022-09-24T01:57:04;100928.25;;;8.73;97.74
53262;BME280;39658;51.090;-1.786;2022-09-24T01:59:37;100933.25;;;8.67;98.06
53262;BME280;39658;51.090;-1.786;2022-09-24T02:02:10;100940.50;;;8.65;98.67
53262;BME280;39658;51.090;-1.786;2022-09-24T02:04:41;100943.72;;;8.59;99.17
53262;BME280;39658;51.090;-1.786;2022-09-24T02:07:13;100940.91;;;8.51;99.42
53262;BME280;39658;51.090;-1.786;2022-09-24T02:09:42;100948.59;;;8.54;99.40
53262;BME280;39658;51.090;-1.786;2022-09-24T02:12:11;100939.13;;;8.70;99.70
53262;BME280;39658;51.090;-1.786;2022-09-24T02:14:44;100949.03;;;8.78;99.30
53262;BME280;39658;51.090;-1.786;2022-09-24T02:17:14;100946.78;;;8.64;99.40
53262;BME280;39658;51.090;-1.786;2022-09-24T02:19:41;100950.13;;;8.56;99.62
53262;BME280;39658;51.090;-1.786;2022-09-24T02:22:11;100951.53;;;8.51;100.00
53262;BME280;39658;51.090;-1.786;2022-09-24T02:24:44;100941.47;;;8.44;100.00
53262;BME280;39658;51.090;-1.786;2022-09-24T02:27:12;100946.72;;;8.35;100.00
53262;BME280;39658;51.090;-1.786;2022-09-24T02:29:39;100942.31;;;8.24;100.00
53262;BME280;39658;51.090;-1.786;2022-09-24T02:32:09;100939.81;;;8.23;100.00
53262;BME280;39658;51.090;-1.786;2022-09-24T02:34:42;100941.34;;;8.25;100.00
53262;BME280;39658;51.090;-1.786;2022-09-24T02:37:10;100944.50;;;8.40;100.00
53262;BME280;39658;51.090;-1.786;2022-09-24T02:39:37;100941.25;;;8.36;100.00
53262;BME280;39658;51.090;-1.786;2022-09-24T02:42:05;100937.72;;;8.26;100.00
53262;BME280;39658;51.090;-1.786;2022-09-24T02:44:32;100934.50;;;8.23;100.00
53262;BME280;39658;51.090;-1.786;2022-09-24T02:47:00;100935.13;;;8.36;100.00
53262;BME280;39658;51.090;-1.786;2022-09-24T02:49:29;100943.84;;;8.27;100.00
53262;BME280;39658;51.090;-1.786;2022-09-24T02:51:56;100939.66;;;8.24;100.00
53262;BME280;39658;51.090;-1.786;2022-09-24T02:54:23;100929.19;;;8.23;100.00
53262;BME280;39658;51.090;-1.786;2022-09-24T02:56:50;100944.22;;;8.12;100.00
53262;BME280;39658;51.090;-1.786;2022-09-24T02:59:17;100940.03;;;8.10;100.00
53262;BME280;39658;51.090;-1.786;2022-09-24T03:01:44;100940.88;;;8.10;100.00
53262;BME280;39658;51.090;-1.786;2022-09-24T03:04:11;100949.63;;;8.01;100.00
53262;BME280;39658;51.090;-1.786;2022-09-24T03:06:40;100956.22;;;8.07;100.00
53262;BME280;39658;51.090;-1.786;2022-09-24T03:09:06;100948.41;;;8.05;100.00
53262;BME280;39658;51.090;-1.786;2022-09-24T03:11:33;100953.34;;;7.99;100.00
53262;BME280;39658;51.090;-1.786;2022-09-24T03:14:00;100947.75;;;7.92;100.00
53262;BME280;39658;51.090;-1.786;2022-09-24T03:16:27;100944.09;;;7.83;100.00
53262;BME280;39658;51.090;-1.786;2022-09-24T03:18:54;100946.41;;;7.77;100.00
53262;BME280;39658;51.090;-1.786;2022-09-24T03:21:21;100934.97;;;7.76;100.00
53262;BME280;39658;51.090;-1.786;2022-09-24T03:23:50;100940.28;;;7.76;100.00
53262;BME280;39658;51.090;-1.786;2022-09-24T03:26:17;100941.91;;;7.68;100.00
53262;BME280;39658;51.090;-1.786;2022-09-24T03:28:44;100949.28;;;7.64;100.00
53262;BME280;39658;51.090;-1.786;2022-09-24T03:31:11;100939.66;;;7.63;100.00
53262;BME280;39658;51.090;-1.786;2022-09-24T03:33:38;100939.97;;;7.70;100.00
53262;BME280;39658;51.090;-1.786;2022-09-24T03:36:07;100934.09;;;7.66;100.00
53262;BME280;39658;51.090;-1.786;2022-09-24T03:38:37;100947.22;;;7.68;100.00
53262;BME280;39658;51.090;-1.786;2022-09-24T03:41:06;100941.06;;;7.67;100.00
53262;BME280;39658;51.090;-1.786;2022-09-24T03:43:33;100935.06;;;7.65;100.00
53262;BME280;39658;51.090;-1.786;2022-09-24T03:46:00;100934.94;;;7.67;100.00
53262;BME280;39658;51.090;-1.786;2022-09-24T03:48:27;100935.78;;;7.67;100.00
53262;BME280;39658;51.090;-1.786;2022-09-24T03:50:55;100929.06;;;7.63;100.00
53262;BME280;39658;51.090;-1.786;2022-09-24T03:53:22;100941.69;;;7.60;100.00
53262;BME280;39658;51.090;-1.786;2022-09-24T03:55:53;100945.28;;;7.70;100.00
53262;BME280;39658;51.090;-1.786;2022-09-24T03:58:22;100939.53;;;7.65;100.00
53262;BME280;39658;51.090;-1.786;2022-09-24T04:00:50;100946.53;;;7.54;100.00
53262;BME280;39658;51.090;-1.786;2022-09-24T04:03:18;100946.81;;;7.51;100.00
53262;BME280;39658;51.090;-1.786;2022-09-24T04:05:45;100946.63;;;7.43;100.00
53262;BME280;39658;51.090;-1.786;2022-09-24T04:08:12;100941.13;;;7.35;100.00
53262;BME280;39658;51.090;-1.786;2022-09-24T04:10:39;100942.22;;;7.33;100.00
53262;BME280;39658;51.090;-1.786;2022-09-24T04:13:05;100947.00;;;7.39;100.00
53262;BME280;39658;51.090;-1.786;2022-09-24T04:15:34;100957.66;;;7.48;100.00
53262;BME280;39658;51.090;-1.786;2022-09-24T04:18:01;100945.00;;;7.52;100.00
53262;BME280;39658;51.090;-1.786;2022-09-24T04:20:28;100953.06;;;7.50;100.00
53262;BME280;39658;51.090;-1.786;2022-09-24T04:22:56;100955.84;;;7.49;100.00
53262;BME280;39658;51.090;-1.786;2022-09-24T04:25:26;100962.25;;;7.46;100.00
53262;BME280;39658;51.090;-1.786;2022-09-24T04:27:56;100961.56;;;7.65;100.00
53262;BME280;39658;51.090;-1.786;2022-09-24T04:30:24;100963.72;;;7.60;100.00
53262;BME280;39658;51.090;-1.786;2022-09-24T04:32:52;100961.28;;;7.47;100.00
53262;BME280;39658;51.090;-1.786;2022-09-24T04:35:21;100958.09;;;7.53;100.00
53262;BME280;39658;51.090;-1.786;2022-09-24T04:37:48;100962.69;;;7.51;100.00
53262;BME280;39658;51.090;-1.786;2022-09-24T04:40:15;100965.88;;;7.45;100.00
53262;BME280;39658;51.090;-1.786;2022-09-24T04:42:43;100963.28;;;7.55;100.00
53262;BME280;39658;51.090;-1.786;2022-09-24T04:45:12;100960.00;;;7.63;100.00
53262;BME280;39658;51.090;-1.786;2022-09-24T04:47:39;100962.44;;;7.75;100.00
53262;BME280;39658;51.090;-1.786;2022-09-24T04:50:09;100970.22;;;7.67;100.00
53262;BME280;39658;51.090;-1.786;2022-09-24T04:52:37;100965.88;;;7.66;100.00
53262;BME280;39658;51.090;-1.786;2022-09-24T04:55:05;100970.22;;;7.67;100.00
53262;BME280;39658;51.090;-1.786;2022-09-24T04:57:32;100975.91;;;7.63;100.00
53262;BME280;39658;51.090;-1.786;2022-09-24T05:00:01;100972.91;;;7.56;100.00
53262;BME280;39658;51.090;-1.786;2022-09-24T05:02:28;100972.19;;;7.54;100.00
53262;BME280;39658;51.090;-1.786;2022-09-24T05:04:55;100983.88;;;7.51;100.00
53262;BME280;39658;51.090;-1.786;2022-09-24T05:07:23;100987.50;;;7.50;100.00
53262;BME280;39658;51.090;-1.786;2022-09-24T05:09:50;100980.06;;;7.44;100.00
53262;BME280;39658;51.090;-1.786;2022-09-24T05:12:17;100986.53;;;7.51;100.00
53262;BME280;39658;51.090;-1.786;2022-09-24T05:14:45;100986.84;;;7.37;100.00
53262;BME280;39658;51.090;-1.786;2022-09-24T05:17:12;100989.28;;;7.29;100.00
53262;BME280;39658;51.090;-1.786;2022-09-24T05:19:39;100988.47;;;7.29;100.00
53262;BME280;39658;51.090;-1.786;2022-09-24T05:22:05;100985.44;;;7.33;100.00
53262;BME280;39658;51.090;-1.786;2022-09-24T05:24:34;100986.19;;;7.45;100.00
53262;BME280;39658;51.090;-1.786;2022-09-24T05:27:01;100989.16;;;7.51;100.00
53262;BME280;39658;51.090;-1.786;2022-09-24T05:29:37;100991.31;;;7.58;100.00
53262;BME280;39658;51.090;-1.786;2022-09-24T05:32:05;100991.41;;;7.67;100.00
53262;BME280;39658;51.090;-1.786;2022-09-24T05:34:33;101005.16;;;7.61;100.00
53262;BME280;39658;51.090;-1.786;2022-09-24T05:37:00;100990.88;;;7.73;100.00
53262;BME280;39658;51.090;-1.786;2022-09-24T05:39:27;101002.03;;;7.56;100.00
53262;BME280;39658;51.090;-1.786;2022-09-24T05:41:56;101002.88;;;7.57;100.00
53262;BME280;39658;51.090;-1.786;2022-09-24T05:44:23;101012.03;;;7.52;100.00
53262;BME280;39658;51.090;-1.786;2022-09-24T05:46:50;101010.63;;;7.48;100.00
53262;BME280;39658;51.090;-1.786;2022-09-24T05:49:17;101013.19;;;7.39;100.00
53262;BME280;39658;51.090;-1.786;2022-09-24T05:51:46;101007.38;;;7.45;100.00
53262;BME280;39658;51.090;-1.786;2022-09-24T05:54:13;101008.47;;;7.42;100.00
53262;BME280;39658;51.090;-1.786;2022-09-24T05:56:40;101007.38;;;7.45;100.00
53262;BME280;39658;51.090;-1.786;2022-09-24T05:59:09;101013.25;;;7.48;100.00
53262;BME280;39658;51.090;-1.786;2022-09-24T06:01:35;101018.81;;;7.45;100.00
53262;BME280;39658;51.090;-1.786;2022-09-24T06:04:02;101012.69;;;7.45;100.00
53262;BME280;39658;51.090;-1.786;2022-09-24T06:06:29;101011.91;;;7.54;100.00
53262;BME280;39658;51.090;-1.786;2022-09-24T06:08:56;101012.03;;;7.52;100.00
53262;BME280;39658;51.090;-1.786;2022-09-24T06:11:23;101021.81;;;7.73;100.00
53262;BME280;39658;51.090;-1.786;2022-09-24T06:13:50;101030.53;;;7.64;100.00
53262;BME280;39658;51.090;-1.786;2022-09-24T06:16:18;101024.63;;;7.60;100.00
53262;BME280;39658;51.090;-1.786;2022-09-24T06:18:45;101031.78;;;7.80;100.00
53262;BME280;39658;51.090;-1.786;2022-09-24T06:21:13;101032.81;;;7.89;100.00
53262;BME280;39658;51.090;-1.786;2022-09-24T06:23:42;101026.84;;;7.97;100.00
53262;BME280;39658;51.090;-1.786;2022-09-24T06:26:11;101037.19;;;8.00;100.00
53262;BME280;39658;51.090;-1.786;2022-09-24T06:28:38;101035.97;;;8.04;100.00
53262;BME280;39658;51.090;-1.786;2022-09-24T06:31:05;101040.56;;;8.02;100.00
53262;BME280;39658;51.090;-1.786;2022-09-24T06:33:35;101048.75;;;8.20;100.00
53262;BME280;39658;51.090;-1.786;2022-09-24T06:36:03;101047.22;;;8.17;100.00
53262;BME280;39658;51.090;-1.786;2022-09-24T06:38:30;101044.94;;;8.33;100.00
53262;BME280;39658;51.090;-1.786;2022-09-24T06:40:58;101049.97;;;8.36;100.00
53262;BME280;39658;51.090;-1.786;2022-09-24T06:43:26;101052.44;;;8.49;100.00
53262;BME280;39658;51.090;-1.786;2022-09-24T06:45:54;101055.53;;;8.54;100.00
53262;BME280;39658;51.090;-1.786;2022-09-24T06:48:21;101054.00;;;8.61;100.00
53262;BME280;39658;51.090;-1.786;2022-09-24T06:50:49;101059.63;;;8.68;100.00
53262;BME280;39658;51.090;-1.786;2022-09-24T06:53:17;101061.94;;;8.82;100.00
53262;BME280;39658;51.090;-1.786;2022-09-24T06:55:44;101064.50;;;9.03;100.00
53262;BME280;39658;51.090;-1.786;2022-09-24T06:58:12;101066.19;;;9.14;100.00
53262;BME280;39658;51.090;-1.786;2022-09-24T07:00:40;101070.56;;;9.24;100.00
53262;BME280;39658;51.090;-1.786;2022-09-24T07:03:11;101071.13;;;9.37;100.00
53262;BME280;39658;51.090;-1.786;2022-09-24T07:05:39;101069.88;;;9.51;100.00
53262;BME280;39658;51.090;-1.786;2022-09-24T07:08:07;101071.81;;;9.59;99.44
53262;BME280;39658;51.090;-1.786;2022-09-24T07:10:34;101070.00;;;9.59;98.76
53262;BME280;39658;51.090;-1.786;2022-09-24T07:13:02;101067.38;;;9.79;97.18
53262;BME280;39658;51.090;-1.786;2022-09-24T07:15:29;101069.59;;;9.93;97.69
53262;BME280;39658;51.090;-1.786;2022-09-24T07:17:56;101075.19;;;10.09;96.65
53262;BME280;39658;51.090;-1.786;2022-09-24T07:20:23;101076.84;;;10.20;95.87
53262;BME280;39658;51.090;-1.786;2022-09-24T07:22:52;101080.75;;;10.25;95.87
53262;BME280;39658;51.090;-1.786;2022-09-24T07:25:20;101085.75;;;10.38;94.91
53262;BME280;39658;51.090;-1.786;2022-09-24T07:27:47;101085.06;;;10.46;95.07
53262;BME280;39658;51.090;-1.786;2022-09-24T07:30:14;101077.78;;;10.48;94.60
53262;BME280;39658;51.090;-1.786;2022-09-24T07:32:41;101082.53;;;10.54;94.45
53262;BME280;39658;51.090;-1.786;2022-09-24T07:35:08;101087.28;;;10.50;93.52
53262;BME280;39658;51.090;-1.786;2022-09-24T07:37:35;101087.72;;;10.46;92.66
53262;BME280;39658;51.090;-1.786;2022-09-24T07:40:02;101084.22;;;10.45;92.88
53262;BME280;39658;51.090;-1.786;2022-09-24T07:42:30;101087.44;;;10.49;92.71
53262;BME280;39658;51.090;-1.786;2022-09-24T07:44:57;101091.03;;;10.94;90.53
53262;BME280;39658;51.090;-1.786;2022-09-24T07:47:25;101091.50;;;11.35;89.11
53262;BME280;39658;51.090;-1.786;2022-09-24T07:49:52;101088.81;;;11.63;87.84
53262;BME280;39658;51.090;-1.786;2022-09-24T07:52:18;101097.63;;;11.99;86.39
53262;BME280;39658;51.090;-1.786;2022-09-24T07:54:45;101096.66;;;12.43;83.36
53262;BME280;39658;51.090;-1.786;2022-09-24T07:57:13;101098.72;;;13.26;80.42
53262;BME280;39658;51.090;-1.786;2022-09-24T07:59:41;101101.47;;;14.64;75.96
53262;BME280;39658;51.090;-1.786;2022-09-24T08:02:13;101100.56;;;15.27;70.89
53262;BME280;39658;51.090;-1.786;2022-09-24T08:04:41;101100.16;;;15.92;69.28
53262;BME280;39658;51.090;-1.786;2022-09-24T08:07:09;101092.88;;;16.53;66.38
53262;BME280;39658;51.090;-1.786;2022-09-24T08:09:35;101100.63;;;15.73;68.21
53262;BME280;39658;51.090;-1.786;2022-09-24T08:12:03;101106.72;;;15.66;69.69
53262;BME280;39658;51.090;-1.786;2022-09-24T08:14:30;101108.97;;;15.47;68.41
53262;BME280;39658;51.090;-1.786;2022-09-24T08:16:58;101104.75;;;16.06;66.88
53262;BME280;39658;51.090;-1.786;2022-09-24T08:19:25;101106.63;;;16.73;65.60
53262;BME280;39658;51.090;-1.786;2022-09-24T08:21:52;101107.09;;;16.91;65.30
53262;BME280;39658;51.090;-1.786;2022-09-24T08:24:19;101113.03;;;16.34;65.33
53262;BME280;39658;51.090;-1.786;2022-09-24T08:26:46;101111.81;;;16.74;65.77
53262;BME280;39658;51.090;-1.786;2022-09-24T08:29:13;101115.88;;;17.29;62.48
53262;BME280;39658;51.090;-1.786;2022-09-24T08:31:39;101115.13;;;17.93;59.37
53262;BME280;39658;51.090;-1.786;2022-09-24T08:34:08;101112.13;;;18.30;58.99
53262;BME280;39658;51.090;-1.786;2022-09-24T08:36:35;101103.53;;;18.69;58.08
53262;BME280;39658;51.090;-1.786;2022-09-24T08:39:01;101110.25;;;18.52;58.16
53262;BME280;39658;51.090;-1.786;2022-09-24T08:41:42;101113.19;;;19.33;55.04
53262;BME280;39658;51.090;-1.786;2022-09-24T08:44:14;101114.38;;;20.84;53.12
53262;BME280;39658;51.090;-1.786;2022-09-24T08:47:10;101115.00;;;19.93;52.08
53262;BME280;39658;51.090;-1.786;2022-09-24T08:50:01;101111.72;;;20.11;52.57
53262;BME280;39658;51.090;-1.786;2022-09-24T08:52:38;101113.94;;;19.61;52.87
53262;BME280;39658;51.090;-1.786;2022-09-24T08:55:09;101114.19;;;19.99;51.79
53262;BME280;39658;51.090;-1.786;2022-09-24T08:57:43;101106.41;;;21.02;49.23
53262;BME280;39658;51.090;-1.786;2022-09-24T09:00:15;101108.66;;;21.12;48.44
53262;BME280;39658;51.090;-1.786;2022-09-24T09:02:48;101110.78;;;21.54;47.93
53262;BME280;39658;51.090;-1.786;2022-09-24T09:05:22;101114.34;;;22.18;45.87
53262;BME280;39658;51.090;-1.786;2022-09-24T09:07:59;101115.22;;;22.37;46.06
53262;BME280;39658;51.090;-1.786;2022-09-24T09:10:30;101111.34;;;21.95;46.23
53262;BME280;39658;51.090;-1.786;2022-09-24T09:13:04;101112.31;;;22.57;46.12
53262;BME280;39658;51.090;-1.786;2022-09-24T09:15:34;101115.41;;;22.42;45.05
53262;BME280;39658;51.090;-1.786;2022-09-24T09:18:09;101115.78;;;22.89;43.97
53262;BME280;39658;51.090;-1.786;2022-09-24T09:20:41;101126.03;;;23.71;42.27
53262;BME280;39658;51.090;-1.786;2022-09-24T09:23:14;101117.50;;;23.50;42.13
53262;BME280;39658;51.090;-1.786;2022-09-24T09:25:46;101121.44;;;23.24;42.93
53262;BME280;39658;51.090;-1.786;2022-09-24T09:28:16;101121.16;;;23.62;41.93
53262;BME280;39658;51.090;-1.786;2022-09-24T09:30:51;101131.16;;;23.13;42.96
53262;BME280;39658;51.090;-1.786;2022-09-24T09:33:38;101124.16;;;22.37;42.76
53262;BME280;39658;51.090;-1.786;2022-09-24T09:36:26;101124.06;;;23.30;42.30
53262;BME280;39658;51.090;-1.786;2022-09-24T09:39:03;101128.91;;;22.67;42.53
53262;BME280;39658;51.090;-1.786;2022-09-24T09:41:42;101127.94;;;22.11;43.64
53262;BME280;39658;51.090;-1.786;2022-09-24T09:44:15;101128.22;;;21.65;45.07
53262;BME280;39658;51.090;-1.786;2022-09-24T09:46:50;101129.22;;;22.09;43.99
53262;BME280;39658;51.090;-1.786;2022-09-24T09:49:18;101124.44;;;20.44;47.06
53262;BME280;39658;51.090;-1.786;2022-09-24T09:51:47;101129.00;;;18.95;51.66
53262;BME280;39658;51.090;-1.786;2022-09-24T09:54:15;101120.31;;;18.65;53.24
53262;BME280;39658;51.090;-1.786;2022-09-24T09:56:44;101134.81;;;17.93;55.23
53262;BME280;39658;51.090;-1.786;2022-09-24T09:59:17;101122.41;;;18.41;54.07
53262;BME280;39658;51.090;-1.786;2022-09-24T10:01:48;101127.28;;;18.59;53.54
53262;BME280;39658;51.090;-1.786;2022-09-24T10:04:27;101127.78;;;19.52;52.07
53262;BME280;39658;51.090;-1.786;2022-09-24T10:07:10;101119.19;;;20.35;49.22
53262;BME280;39658;51.090;-1.786;2022-09-24T10:09:39;101125.25;;;20.57;48.88
53262;BME280;39658;51.090;-1.786;2022-09-24T10:12:15;101115.69;;;21.71;46.29
53262;BME280;39658;51.090;-1.786;2022-09-24T10:14:43;101119.88;;;21.98;44.96
53262;BME280;39658;51.090;-1.786;2022-09-24T10:17:12;101120.47;;;22.32;43.32
53262;BME280;39658;51.090;-1.786;2022-09-24T10:19:42;101114.53;;;23.21;41.47
53262;BME280;39658;51.090;-1.786;2022-09-24T10:22:18;101110.44;;;23.79;40.46
53262;BME280;39658;51.090;-1.786;2022-09-24T10:24:47;101113.88;;;24.86;37.72
53262;BME280;39658;51.090;-1.786;2022-09-24T10:27:21;101123.78;;;25.15;38.92
53262;BME280;39658;51.090;-1.786;2022-09-24T10:29:53;101118.25;;;24.98;36.79
53262;BME280;39658;51.090;-1.786;2022-09-24T10:32:39;101115.63;;;24.10;38.89
53262;BME280;39658;51.090;-1.786;2022-09-24T10:35:20;101124.53;;;24.29;39.09
53262;BME280;39658;51.090;-1.786;2022-09-24T10:37:52;101113.25;;;24.02;39.00
53262;BME280;39658;51.090;-1.786;2022-09-24T10:40:21;101115.56;;;24.63;38.22
53262;BME280;39658;51.090;-1.786;2022-09-24T10:43:00;101119.78;;;23.23;42.27
53262;BME280;39658;51.090;-1.786;2022-09-24T10:45:48;101118.97;;;24.35;38.68
53262;BME280;39658;51.090;-1.786;2022-09-24T10:48:20;101114.19;;;24.19;38.31
53262;BME280;39658;51.090;-1.786;2022-09-24T10:50:54;101115.78;;;24.74;37.66
53262;BME280;39658;51.090;-1.786;2022-09-24T10:53:32;101115.25;;;25.12;38.13
53262;BME280;39658;51.090;-1.786;2022-09-24T10:56:07;101109.56;;;25.82;36.50
53262;BME280;39658;51.090;-1.786;2022-09-24T11:01:37;101112.69;;;23.22;39.82
53262;BME280;39658;51.090;-1.786;2022-09-24T11:04:28;101118.72;;;23.05;39.60
53262;BME280;39658;51.090;-1.786;2022-09-24T11:07:21;101111.50;;;22.56;40.13
53262;BME280;39658;51.090;-1.786;2022-09-24T11:09:57;101110.94;;;21.21;42.43
53262;BME280;39658;51.090;-1.786;2022-09-24T11:12:33;101113.63;;;21.21;43.23
53262;BME280;39658;51.090;-1.786;2022-09-24T11:15:14;101115.28;;;21.29;43.98
53262;BME280;39658;51.090;-1.786;2022-09-24T11:17:56;101104.78;;;20.94;44.53
53262;BME280;39658;51.090;-1.786;2022-09-24T11:20:30;101107.19;;;21.67;43.18
53262;BME280;39658;51.090;-1.786;2022-09-24T11:26:12;101105.50;;;21.28;44.01
53262;BME280;39658;51.090;-1.786;2022-09-24T11:29:01;101116.91;;;21.37;44.79
53262;BME280;39658;51.090;-1.786;2022-09-24T11:31:37;101121.09;;;20.55;45.42
53262;BME280;39658;51.090;-1.786;2022-09-24T11:34:31;101122.72;;;20.62;46.65
53262;BME280;39658;51.090;-1.786;2022-09-24T11:37:14;101116.66;;;19.81;46.73
53262;BME280;39658;51.090;-1.786;2022-09-24T11:40:01;101125.66;;;20.08;46.77
53262;BME280;39658;51.090;-1.786;2022-09-24T11:42:35;101118.75;;;19.99;46.97
53262;BME280;39658;51.090;-1.786;2022-09-24T11:45:19;101116.47;;;20.69;45.64
53262;BME280;39658;51.090;-1.786;2022-09-24T11:48:11;101119.00;;;20.57;45.49
53262;BME280;39658;51.090;-1.786;2022-09-24T11:50:49;101107.94;;;20.85;44.35
53262;BME280;39658;51.090;-1.786;2022-09-24T11:53:35;101115.03;;;20.33;45.08
53262;BME280;39658;51.090;-1.786;2022-09-24T11:56:08;101109.84;;;20.25;45.54
53262;BME280;39658;51.090;-1.786;2022-09-24T11:58:39;101110.72;;;19.38;46.41
53262;BME280;39658;51.090;-1.786;2022-09-24T12:01:12;101110.59;;;19.59;46.54
53262;BME280;39658;51.090;-1.786;2022-09-24T12:03:45;101117.13;;;20.11;44.90
53262;BME280;39658;51.090;-1.786;2022-09-24T12:06:19;101115.25;;;20.12;44.69
53262;BME280;39658;51.090;-1.786;2022-09-24T12:08:49;101100.06;;;20.17;45.79
53262;BME280;39658;51.090;-1.786;2022-09-24T12:11:24;101104.88;;;20.55;43.77
53262;BME280;39658;51.090;-1.786;2022-09-24T12:14:00;101105.25;;;20.39;44.76
53262;BME280;39658;51.090;-1.786;2022-09-24T12:16:35;101109.81;;;19.79;46.28
53262;BME280;39658;51.090;-1.786;2022-09-24T12:19:08;101106.69;;;19.62;46.56
53262;BME280;39658;51.090;-1.786;2022-09-24T12:21:39;101118.97;;;18.82;47.29
53262;BME280;39658;51.090;-1.786;2022-09-24T12:24:11;101117.09;;;19.98;45.71
53262;BME280;39658;51.090;-1.786;2022-09-24T12:26:41;101116.50;;;20.09;45.41
53262;BME280;39658;51.090;-1.786;2022-09-24T12:29:28;101113.19;;;20.47;44.04
53262;BME280;39658;51.090;-1.786;2022-09-24T12:32:20;101112.34;;;20.40;43.77
53262;BME280;39658;51.090;-1.786;2022-09-24T12:35:11;101109.31;;;21.01;42.94
53262;BME280;39658;51.090;-1.786;2022-09-24T12:37:41;101106.78;;;21.12;41.84
53262;BME280;39658;51.090;-1.786;2022-09-24T12:40:20;101099.84;;;21.36;41.96
53262;BME280;39658;51.090;-1.786;2022-09-24T12:42:56;101099.91;;;21.23;40.99
53262;BME280;39658;51.090;-1.786;2022-09-24T12:45:27;101093.31;;;20.99;41.99
53262;BME280;39658;51.090;-1.786;2022-09-24T12:47:57;101097.94;;;20.85;41.97
53262;BME280;39658;51.090;-1.786;2022-09-24T12:50:27;101097.53;;;20.69;42.04
53262;BME280;39658;51.090;-1.786;2022-09-24T12:52:55;101097.09;;;20.78;42.04
53262;BME280;39658;51.090;-1.786;2022-09-24T12:55:24;101100.16;;;21.02;41.81
53262;BME280;39658;51.090;-1.786;2022-09-24T12:57:53;101104.16;;;20.79;42.38
53262;BME280;39658;51.090;-1.786;2022-09-24T13:00:37;101102.13;;;20.81;41.92
53262;BME280;39658;51.090;-1.786;2022-09-24T13:03:06;101110.22;;;19.76;44.81
53262;BME280;39658;51.090;-1.786;2022-09-24T13:05:53;101108.47;;;18.66;46.71
53262;BME280;39658;51.090;-1.786;2022-09-24T13:08:23;101096.91;;;18.72;47.07